sensor_id;sensor_type;location;lat;lon;timestamp;P1;durP1;ratioP1;P2;durP2;ratioP2
41635;SDS011;27623;51.966;4.602;2024-01-30T00:01:17;4.80;;;2.67;;
41635;SDS011;27623;51.966;4.602;2024-01-30T00:03:42;6.80;;;2.30;;
41635;SDS011;27623;51.966;4.602;2024-01-30T00:06:08;3.90;;;2.28;;
41635;SDS011;27623;51.966;4.602;2024-01-30T00:08:36;4.22;;;2.47;;
41635;SDS011;27623;51.966;4.602;2024-01-30T00:11:01;8.98;;;3.15;;
41635;SDS011;27623;51.966;4.602;2024-01-30T00:13:26;4.43;;;2.35;;
41635;SDS011;27623;51.966;4.602;2024-01-30T00:15:52;7.50;;;2.08;;
41635;SDS011;27623;51.966;4.602;2024-01-30T00:18:20;3.92;;;2.15;;
41635;SDS011;27623;51.966;4.602;2024-01-30T00:20:45;9.27;;;3.17;;
41635;SDS011;27623;51.966;4.602;2024-01-30T00:23:10;6.05;;;2.80;;
41635;SDS011;27623;51.966;4.602;2024-01-30T00:25:38;8.77;;;2.47;;
41635;SDS011;27623;51.966;4.602;2024-01-30T00:28:06;7.30;;;2.17;;
41635;SDS011;27623;51.966;4.602;2024-01-30T00:30:31;5.45;;;2.20;;
41635;SDS011;27623;51.966;4.602;2024-01-30T00:32:56;5.88;;;3.30;;
41635;SDS011;27623;51.966;4.602;2024-01-30T00:35:22;4.45;;;1.77;;
41635;SDS011;27623;51.966;4.602;2024-01-30T00:37:48;4.32;;;2.88;;
41635;SDS011;27623;51.966;4.602;2024-01-30T00:40:16;4.72;;;2.55;;
41635;SDS011;27623;51.966;4.602;2024-01-30T00:42:43;6.70;;;3.30;;
41635;SDS011;27623;51.966;4.602;2024-01-30T00:45:15;6.75;;;3.05;;
41635;SDS011;27623;51.966;4.602;2024-01-30T00:47:41;5.15;;;2.42;;
41635;SDS011;27623;51.966;4.602;2024-01-30T00:50:07;6.97;;;3.13;;
41635;SDS011;27623;51.966;4.602;2024-01-30T00:52:32;8.63;;;3.30;;
41635;SDS011;27623;51.966;4.602;2024-01-30T00:54:58;4.47;;;2.20;;
41635;SDS011;27623;51.966;4.602;2024-01-30T00:57:24;6.50;;;3.08;;
41635;SDS011;27623;51.966;4.602;2024-01-30T00:59:52;6.20;;;3.13;;
41635;SDS011;27623;51.966;4.602;2024-01-30T01:02:17;7.53;;;2.63;;
41635;SDS011;27623;51.966;4.602;2024-01-30T01:04:43;6.97;;;3.10;;
41635;SDS011;27623;51.966;4.602;2024-01-30T01:07:10;5.00;;;2.28;;
41635;SDS011;27623;51.966;4.602;2024-01-30T01:09:36;9.23;;;3.38;;
41635;SDS011;27623;51.966;4.602;2024-01-30T01:12:02;5.80;;;2.40;;
41635;SDS011;27623;51.966;4.602;2024-01-30T01:14:31;7.70;;;2.53;;
41635;SDS011;27623;51.966;4.602;2024-01-30T01:16:56;5.43;;;2.22;;
41635;SDS011;27623;51.966;4.602;2024-01-30T01:19:21;4.65;;;2.15;;
41635;SDS011;27623;51.966;4.602;2024-01-30T01:21:47;4.47;;;1.88;;
41635;SDS011;27623;51.966;4.602;2024-01-30T01:24:12;5.18;;;2.75;;
41635;SDS011;27623;51.966;4.602;2024-01-30T01:26:40;6.25;;;2.10;;
41635;SDS011;27623;51.966;4.602;2024-01-30T01:29:06;6.78;;;3.00;;
41635;SDS011;27623;51.966;4.602;2024-01-30T01:31:37;5.45;;;3.03;;
41635;SDS011;27623;51.966;4.602;2024-01-30T01:34:10;8.27;;;3.33;;
41635;SDS011;27623;51.966;4.602;2024-01-30T01:36:36;8.60;;;3.97;;
41635;SDS011;27623;51.966;4.602;2024-01-30T01:39:02;6.13;;;2.03;;
41635;SDS011;27623;51.966;4.602;2024-01-30T01:41:31;4.55;;;1.90;;
41635;SDS011;27623;51.966;4.602;2024-01-30T01:43:57;5.97;;;2.45;;
41635;SDS011;27623;51.966;4.602;2024-01-30T01:46:23;5.93;;;2.72;;
41635;SDS011;27623;51.966;4.602;2024-01-30T01:48:50;3.85;;;2.15;;
41635;SDS011;27623;51.966;4.602;2024-01-30T01:51:15;9.15;;;2.85;;
41635;SDS011;27623;51.966;4.602;2024-01-30T01:53:44;4.00;;;1.92;;
41635;SDS011;27623;51.966;4.602;2024-01-30T01:56:09;3.67;;;1.95;;
41635;SDS011;27623;51.966;4.602;2024-01-30T01:58:35;6.03;;;2.78;;
41635;SDS011;27623;51.966;4.602;2024-01-30T02:01:01;6.60;;;3.22;;
41635;SDS011;27623;51.966;4.602;2024-01-30T02:03:27;5.55;;;2.47;;
41635;SDS011;27623;51.966;4.602;2024-01-30T02:05:53;3.40;;;1.95;;
41635;SDS011;27623;51.966;4.602;2024-01-30T02:08:20;5.10;;;2.80;;
41635;SDS011;27623;51.966;4.602;2024-01-30T02:10:45;4.45;;;2.40;;
41635;SDS011;27623;51.966;4.602;2024-01-30T02:13:11;4.10;;;2.40;;
41635;SDS011;27623;51.966;4.602;2024-01-30T02:15:36;5.07;;;2.63;;
41635;SDS011;27623;51.966;4.602;2024-01-30T02:18:01;7.10;;;3.10;;
41635;SDS011;27623;51.966;4.602;2024-01-30T02:20:27;8.68;;;2.92;;
41635;SDS011;27623;51.966;4.602;2024-01-30T02:22:56;4.50;;;2.05;;
41635;SDS011;27623;51.966;4.602;2024-01-30T02:25:41;5.30;;;2.50;;
41635;SDS011;27623;51.966;4.602;2024-01-30T02:28:12;5.85;;;2.40;;
41635;SDS011;27623;51.966;4.602;2024-01-30T02:30:39;4.80;;;1.90;;
41635;SDS011;27623;51.966;4.602;2024-01-30T02:33:04;3.28;;;2.00;;
41635;SDS011;27623;51.966;4.602;2024-01-30T02:35:30;5.72;;;2.40;;
41635;SDS011;27623;51.966;4.602;2024-01-30T02:37:55;12.40;;;3.42;;
41635;SDS011;27623;51.966;4.602;2024-01-30T02:40:23;7.20;;;2.88;;
41635;SDS011;27623;51.966;4.602;2024-01-30T02:42:48;5.72;;;2.55;;
41635;SDS011;27623;51.966;4.602;2024-01-30T02:45:14;10.02;;;2.90;;
41635;SDS011;27623;51.966;4.602;2024-01-30T02:47:40;6.18;;;3.20;;
41635;SDS011;27623;51.966;4.602;2024-01-30T02:50:05;6.10;;;1.90;;
41635;SDS011;27623;51.966;4.602;2024-01-30T02:52:31;6.57;;;2.40;;
41635;SDS011;27623;51.966;4.602;2024-01-30T02:54:57;5.70;;;2.13;;
41635;SDS011;27623;51.966;4.602;2024-01-30T02:57:22;7.03;;;2.63;;
41635;SDS011;27623;51.966;4.602;2024-01-30T02:59:47;2.65;;;1.70;;
41635;SDS011;27623;51.966;4.602;2024-01-30T03:02:13;4.72;;;2.65;;
41635;SDS011;27623;51.966;4.602;2024-01-30T03:04:40;9.95;;;3.05;;
41635;SDS011;27623;51.966;4.602;2024-01-30T03:07:06;8.18;;;1.92;;
41635;SDS011;27623;51.966;4.602;2024-01-30T03:09:32;3.85;;;2.25;;
41635;SDS011;27623;51.966;4.602;2024-01-30T03:11:57;4.85;;;1.92;;
41635;SDS011;27623;51.966;4.602;2024-01-30T03:14:22;6.18;;;2.60;;
41635;SDS011;27623;51.966;4.602;2024-01-30T03:16:50;5.28;;;2.38;;
41635;SDS011;27623;51.966;4.602;2024-01-30T03:19:15;5.13;;;2.95;;
41635;SDS011;27623;51.966;4.602;2024-01-30T03:21:41;5.35;;;2.58;;
41635;SDS011;27623;51.966;4.602;2024-01-30T03:24:06;3.80;;;1.85;;
41635;SDS011;27623;51.966;4.602;2024-01-30T03:26:32;2.92;;;1.95;;
41635;SDS011;27623;51.966;4.602;2024-01-30T03:28:57;3.08;;;1.40;;
41635;SDS011;27623;51.966;4.602;2024-01-30T03:31:22;2.78;;;2.22;;
41635;SDS011;27623;51.966;4.602;2024-01-30T03:33:48;4.90;;;1.98;;
41635;SDS011;27623;51.966;4.602;2024-01-30T03:36:14;5.38;;;2.33;;
41635;SDS011;27623;51.966;4.602;2024-01-30T03:38:40;5.25;;;2.42;;
41635;SDS011;27623;51.966;4.602;2024-01-30T03:41:07;11.15;;;2.97;;
41635;SDS011;27623;51.966;4.602;2024-01-30T03:43:36;7.95;;;2.28;;
41635;SDS011;27623;51.966;4.602;2024-01-30T03:46:02;7.35;;;3.00;;
41635;SDS011;27623;51.966;4.602;2024-01-30T03:48:28;3.15;;;1.50;;
41635;SDS011;27623;51.966;4.602;2024-01-30T03:50:56;5.32;;;3.38;;
41635;SDS011;27623;51.966;4.602;2024-01-30T03:53:21;1.92;;;1.25;;
41635;SDS011;27623;51.966;4.602;2024-01-30T03:55:47;4.07;;;2.13;;
41635;SDS011;27623;51.966;4.602;2024-01-30T03:58:13;3.40;;;2.22;;
41635;SDS011;27623;51.966;4.602;2024-01-30T04:00:38;7.25;;;3.85;;
41635;SDS011;27623;51.966;4.602;2024-01-30T04:03:06;3.05;;;1.67;;
41635;SDS011;27623;51.966;4.602;2024-01-30T04:05:34;4.60;;;2.78;;
41635;SDS011;27623;51.966;4.602;2024-01-30T04:08:02;9.10;;;2.25;;
41635;SDS011;27623;51.966;4.602;2024-01-30T04:10:27;4.75;;;2.20;;
41635;SDS011;27623;51.966;4.602;2024-01-30T04:12:55;3.35;;;2.05;;
41635;SDS011;27623;51.966;4.602;2024-01-30T04:15:21;13.82;;;1.92;;
41635;SDS011;27623;51.966;4.602;2024-01-30T04:17:46;3.40;;;1.98;;
41635;SDS011;27623;51.966;4.602;2024-01-30T04:20:15;6.38;;;3.20;;
41635;SDS011;27623;51.966;4.602;2024-01-30T04:22:43;3.42;;;1.85;;
41635;SDS011;27623;51.966;4.602;2024-01-30T04:25:12;5.95;;;2.17;;
41635;SDS011;27623;51.966;4.602;2024-01-30T04:27:38;4.85;;;2.08;;
41635;SDS011;27623;51.966;4.602;2024-01-30T04:30:04;5.80;;;2.67;;
41635;SDS011;27623;51.966;4.602;2024-01-30T04:32:32;6.75;;;2.95;;
41635;SDS011;27623;51.966;4.602;2024-01-30T04:34:58;4.80;;;2.35;;
41635;SDS011;27623;51.966;4.602;2024-01-30T04:37:23;4.70;;;2.20;;
41635;SDS011;27623;51.966;4.602;2024-01-30T04:39:50;5.75;;;2.83;;
41635;SDS011;27623;51.966;4.602;2024-01-30T04:42:18;4.07;;;2.45;;
41635;SDS011;27623;51.966;4.602;2024-01-30T04:44:44;8.50;;;2.25;;
41635;SDS011;27623;51.966;4.602;2024-01-30T04:47:11;3.05;;;1.95;;
41635;SDS011;27623;51.966;4.602;2024-01-30T04:49:40;7.53;;;3.08;;
41635;SDS011;27623;51.966;4.602;2024-01-30T04:52:06;3.85;;;2.70;;
41635;SDS011;27623;51.966;4.602;2024-01-30T04:54:32;5.57;;;2.20;;
41635;SDS011;27623;51.966;4.602;2024-01-30T04:56:58;3.75;;;2.38;;
41635;SDS011;27623;51.966;4.602;2024-01-30T04:59:23;3.72;;;1.80;;
41635;SDS011;27623;51.966;4.602;2024-01-30T05:01:49;5.25;;;2.13;;
41635;SDS011;27623;51.966;4.602;2024-01-30T05:04:14;8.30;;;2.72;;
41635;SDS011;27623;51.966;4.602;2024-01-30T05:06:40;8.07;;;3.40;;
41635;SDS011;27623;51.966;4.602;2024-01-30T05:09:05;4.35;;;2.03;;
41635;SDS011;27623;51.966;4.602;2024-01-30T05:11:37;4.72;;;2.38;;
41635;SDS011;27623;51.966;4.602;2024-01-30T05:14:04;3.53;;;1.85;;
41635;SDS011;27623;51.966;4.602;2024-01-30T05:16:29;2.80;;;1.80;;
41635;SDS011;27623;51.966;4.602;2024-01-30T05:18:55;6.15;;;2.40;;
41635;SDS011;27623;51.966;4.602;2024-01-30T05:21:20;5.25;;;2.38;;
41635;SDS011;27623;51.966;4.602;2024-01-30T05:23:45;6.00;;;1.77;;
41635;SDS011;27623;51.966;4.602;2024-01-30T05:26:11;7.28;;;2.40;;
41635;SDS011;27623;51.966;4.602;2024-01-30T05:28:36;5.40;;;3.00;;
41635;SDS011;27623;51.966;4.602;2024-01-30T05:31:02;3.78;;;2.05;;
41635;SDS011;27623;51.966;4.602;2024-01-30T05:33:28;6.38;;;2.55;;
41635;SDS011;27623;51.966;4.602;2024-01-30T05:35:56;5.63;;;2.15;;
41635;SDS011;27623;51.966;4.602;2024-01-30T05:38:21;4.97;;;2.53;;
41635;SDS011;27623;51.966;4.602;2024-01-30T05:40:46;4.65;;;2.42;;
41635;SDS011;27623;51.966;4.602;2024-01-30T05:43:14;3.13;;;2.35;;
41635;SDS011;27623;51.966;4.602;2024-01-30T05:45:39;3.67;;;1.65;;
41635;SDS011;27623;51.966;4.602;2024-01-30T05:48:05;2.88;;;1.88;;
41635;SDS011;27623;51.966;4.602;2024-01-30T05:50:30;4.93;;;2.47;;
41635;SDS011;27623;51.966;4.602;2024-01-30T05:52:56;4.88;;;1.95;;
41635;SDS011;27623;51.966;4.602;2024-01-30T05:55:21;8.73;;;3.63;;
41635;SDS011;27623;51.966;4.602;2024-01-30T05:57:47;4.47;;;3.30;;
41635;SDS011;27623;51.966;4.602;2024-01-30T06:00:15;3.35;;;2.22;;
41635;SDS011;27623;51.966;4.602;2024-01-30T06:02:41;4.63;;;2.55;;
41635;SDS011;27623;51.966;4.602;2024-01-30T06:05:07;3.95;;;2.38;;
41635;SDS011;27623;51.966;4.602;2024-01-30T06:07:32;6.05;;;2.00;;
41635;SDS011;27623;51.966;4.602;2024-01-30T06:09:58;4.22;;;2.28;;
41635;SDS011;27623;51.966;4.602;2024-01-30T06:12:25;4.35;;;2.60;;
41635;SDS011;27623;51.966;4.602;2024-01-30T06:14:54;4.45;;;1.50;;
41635;SDS011;27623;51.966;4.602;2024-01-30T06:17:22;5.63;;;3.17;;
41635;SDS011;27623;51.966;4.602;2024-01-30T06:19:47;5.47;;;1.88;;
41635;SDS011;27623;51.966;4.602;2024-01-30T06:22:13;2.83;;;1.88;;
41635;SDS011;27623;51.966;4.602;2024-01-30T06:24:38;7.47;;;2.20;;
41635;SDS011;27623;51.966;4.602;2024-01-30T06:27:06;9.10;;;2.65;;
41635;SDS011;27623;51.966;4.602;2024-01-30T06:29:31;6.07;;;2.53;;
41635;SDS011;27623;51.966;4.602;2024-01-30T06:31:57;4.60;;;2.25;;
41635;SDS011;27623;51.966;4.602;2024-01-30T06:34:22;4.38;;;1.90;;
41635;SDS011;27623;51.966;4.602;2024-01-30T06:36:47;3.42;;;2.05;;
41635;SDS011;27623;51.966;4.602;2024-01-30T06:39:13;4.43;;;2.95;;
41635;SDS011;27623;51.966;4.602;2024-01-30T06:41:38;5.93;;;2.25;;
41635;SDS011;27623;51.966;4.602;2024-01-30T06:44:03;4.40;;;2.70;;
41635;SDS011;27623;51.966;4.602;2024-01-30T06:46:31;7.50;;;2.90;;
41635;SDS011;27623;51.966;4.602;2024-01-30T06:48:57;22.05;;;2.72;;
41635;SDS011;27623;51.966;4.602;2024-01-30T06:51:22;5.60;;;3.05;;
41635;SDS011;27623;51.966;4.602;2024-01-30T06:53:48;9.40;;;2.40;;
41635;SDS011;27623;51.966;4.602;2024-01-30T06:56:13;3.78;;;2.55;;
41635;SDS011;27623;51.966;4.602;2024-01-30T06:58:45;4.43;;;2.25;;
41635;SDS011;27623;51.966;4.602;2024-01-30T07:01:11;4.57;;;2.45;;
41635;SDS011;27623;51.966;4.602;2024-01-30T07:03:36;8.80;;;3.08;;
41635;SDS011;27623;51.966;4.602;2024-01-30T07:06:02;7.78;;;2.75;;
41635;SDS011;27623;51.966;4.602;2024-01-30T07:08:27;4.50;;;2.55;;
41635;SDS011;27623;51.966;4.602;2024-01-30T07:10:52;5.38;;;2.35;;
41635;SDS011;27623;51.966;4.602;2024-01-30T07:13:21;5.45;;;2.30;;
41635;SDS011;27623;51.966;4.602;2024-01-30T07:15:46;3.53;;;1.88;;
41635;SDS011;27623;51.966;4.602;2024-01-30T07:18:12;6.55;;;2.60;;
41635;SDS011;27623;51.966;4.602;2024-01-30T07:20:38;6.53;;;2.85;;
41635;SDS011;27623;51.966;4.602;2024-01-30T07:23:10;3.88;;;2.53;;
41635;SDS011;27623;51.966;4.602;2024-01-30T07:25:38;3.67;;;2.20;;
41635;SDS011;27623;51.966;4.602;2024-01-30T07:28:06;7.60;;;2.42;;
41635;SDS011;27623;51.966;4.602;2024-01-30T07:30:32;4.28;;;1.95;;
41635;SDS011;27623;51.966;4.602;2024-01-30T07:32:57;3.08;;;1.80;;
41635;SDS011;27623;51.966;4.602;2024-01-30T07:35:25;3.95;;;1.83;;
41635;SDS011;27623;51.966;4.602;2024-01-30T07:37:50;8.35;;;2.45;;
41635;SDS011;27623;51.966;4.602;2024-01-30T07:40:15;3.10;;;1.98;;
41635;SDS011;27623;51.966;4.602;2024-01-30T07:42:42;4.07;;;2.00;;
41635;SDS011;27623;51.966;4.602;2024-01-30T07:45:07;5.25;;;2.92;;
41635;SDS011;27623;51.966;4.602;2024-01-30T07:47:33;9.35;;;2.72;;
41635;SDS011;27623;51.966;4.602;2024-01-30T07:49:58;4.82;;;1.73;;
41635;SDS011;27623;51.966;4.602;2024-01-30T07:52:24;5.03;;;2.38;;
41635;SDS011;27623;51.966;4.602;2024-01-30T07:54:51;6.55;;;2.13;;
41635;SDS011;27623;51.966;4.602;2024-01-30T07:57:17;6.10;;;2.95;;
41635;SDS011;27623;51.966;4.602;2024-01-30T07:59:44;5.13;;;1.77;;
41635;SDS011;27623;51.966;4.602;2024-01-30T08:02:11;6.28;;;2.75;;
41635;SDS011;27623;51.966;4.602;2024-01-30T08:04:38;10.32;;;4.65;;
41635;SDS011;27623;51.966;4.602;2024-01-30T08:07:03;4.45;;;2.17;;
41635;SDS011;27623;51.966;4.602;2024-01-30T08:09:31;4.25;;;2.80;;
41635;SDS011;27623;51.966;4.602;2024-01-30T08:11:59;16.23;;;2.25;;
41635;SDS011;27623;51.966;4.602;2024-01-30T08:14:27;7.05;;;2.22;;
41635;SDS011;27623;51.966;4.602;2024-01-30T08:16:54;2.33;;;1.45;;
41635;SDS011;27623;51.966;4.602;2024-01-30T08:19:22;2.88;;;1.50;;
41635;SDS011;27623;51.966;4.602;2024-01-30T08:21:47;3.65;;;1.95;;
41635;SDS011;27623;51.966;4.602;2024-01-30T08:24:13;5.85;;;2.55;;
41635;SDS011;27623;51.966;4.602;2024-01-30T08:26:38;4.15;;;2.15;;
41635;SDS011;27623;51.966;4.602;2024-01-30T08:29:03;12.38;;;2.83;;
41635;SDS011;27623;51.966;4.602;2024-01-30T08:31:29;3.70;;;1.98;;
41635;SDS011;27623;51.966;4.602;2024-01-30T08:33:54;4.32;;;2.42;;
41635;SDS011;27623;51.966;4.602;2024-01-30T08:36:20;1.85;;;1.02;;
41635;SDS011;27623;51.966;4.602;2024-01-30T08:38:45;8.55;;;3.00;;
41635;SDS011;27623;51.966;4.602;2024-01-30T08:41:10;7.32;;;2.67;;
41635;SDS011;27623;51.966;4.602;2024-01-30T08:43:38;5.78;;;2.85;;
41635;SDS011;27623;51.966;4.602;2024-01-30T08:46:03;4.38;;;2.13;;
41635;SDS011;27623;51.966;4.602;2024-01-30T08:48:29;4.38;;;2.20;;
41635;SDS011;27623;51.966;4.602;2024-01-30T08:50:54;3.42;;;1.85;;
41635;SDS011;27623;51.966;4.602;2024-01-30T08:53:20;3.05;;;1.55;;
41635;SDS011;27623;51.966;4.602;2024-01-30T08:55:45;6.15;;;2.33;;
41635;SDS011;27623;51.966;4.602;2024-01-30T08:58:11;8.50;;;1.92;;
41635;SDS011;27623;51.966;4.602;2024-01-30T09:00:36;5.63;;;1.98;;
41635;SDS011;27623;51.966;4.602;2024-01-30T09:03:02;4.03;;;2.05;;
41635;SDS011;27623;51.966;4.602;2024-01-30T09:05:28;5.85;;;2.53;;
41635;SDS011;27623;51.966;4.602;2024-01-30T09:07:53;6.20;;;2.47;;
41635;SDS011;27623;51.966;4.602;2024-01-30T09:10:19;4.78;;;1.65;;
41635;SDS011;27623;51.966;4.602;2024-01-30T09:12:44;4.90;;;1.85;;
41635;SDS011;27623;51.966;4.602;2024-01-30T09:15:10;5.75;;;1.98;;
41635;SDS011;27623;51.966;4.602;2024-01-30T09:17:35;4.05;;;2.05;;
41635;SDS011;27623;51.966;4.602;2024-01-30T09:20:00;6.60;;;2.45;;
41635;SDS011;27623;51.966;4.602;2024-01-30T09:22:26;7.25;;;1.77;;
41635;SDS011;27623;51.966;4.602;2024-01-30T09:24:51;7.10;;;2.47;;
41635;SDS011;27623;51.966;4.602;2024-01-30T09:27:16;5.63;;;2.00;;
41635;SDS011;27623;51.966;4.602;2024-01-30T09:29:42;3.90;;;1.70;;
41635;SDS011;27623;51.966;4.602;2024-01-30T09:32:07;7.30;;;2.65;;
41635;SDS011;27623;51.966;4.602;2024-01-30T09:34:34;5.15;;;2.28;;
41635;SDS011;27623;51.966;4.602;2024-01-30T09:37:02;4.03;;;1.75;;
41635;SDS011;27623;51.966;4.602;2024-01-30T09:39:27;3.70;;;1.60;;
41635;SDS011;27623;51.966;4.602;2024-01-30T09:42:35;6.32;;;1.88;;
41635;SDS011;27623;51.966;4.602;2024-01-30T09:44:50;3.30;;;1.25;;
41635;SDS011;27623;51.966;4.602;2024-01-30T09:47:17;12.20;;;3.05;;
41635;SDS011;27623;51.966;4.602;2024-01-30T09:49:43;3.03;;;1.33;;
41635;SDS011;27623;51.966;4.602;2024-01-30T09:52:11;10.05;;;2.90;;
41635;SDS011;27623;51.966;4.602;2024-01-30T09:54:38;7.53;;;1.45;;
41635;SDS011;27623;51.966;4.602;2024-01-30T09:57:03;18.88;;;2.88;;
41635;SDS011;27623;51.966;4.602;2024-01-30T09:59:30;2.20;;;1.42;;
41635;SDS011;27623;51.966;4.602;2024-01-30T10:01:55;3.90;;;1.88;;
41635;SDS011;27623;51.966;4.602;2024-01-30T10:04:22;3.13;;;1.65;;
41635;SDS011;27623;51.966;4.602;2024-01-30T10:06:47;2.45;;;1.55;;
41635;SDS011;27623;51.966;4.602;2024-01-30T10:09:13;4.25;;;1.35;;
41635;SDS011;27623;51.966;4.602;2024-01-30T10:11:39;4.95;;;2.33;;
41635;SDS011;27623;51.966;4.602;2024-01-30T10:14:04;5.20;;;1.65;;
41635;SDS011;27623;51.966;4.602;2024-01-30T10:16:30;4.60;;;0.68;;
41635;SDS011;27623;51.966;4.602;2024-01-30T10:18:55;2.95;;;1.33;;
41635;SDS011;27623;51.966;4.602;2024-01-30T10:21:21;1.17;;;0.93;;
41635;SDS011;27623;51.966;4.602;2024-01-30T10:23:50;2.72;;;1.17;;
41635;SDS011;27623;51.966;4.602;2024-01-30T10:26:16;4.75;;;1.80;;
41635;SDS011;27623;51.966;4.602;2024-01-30T10:28:45;4.55;;;1.17;;
41635;SDS011;27623;51.966;4.602;2024-01-30T10:31:17;5.85;;;0.82;;
41635;SDS011;27623;51.966;4.602;2024-01-30T10:33:43;0.93;;;0.40;;
41635;SDS011;27623;51.966;4.602;2024-01-30T10:36:10;0.75;;;0.45;;
41635;SDS011;27623;51.966;4.602;2024-01-30T10:38:39;1.35;;;0.43;;
41635;SDS011;27623;51.966;4.602;2024-01-30T10:41:07;3.67;;;1.02;;
41635;SDS011;27623;51.966;4.602;2024-01-30T10:43:40;1.40;;;0.60;;
41635;SDS011;27623;51.966;4.602;2024-01-30T10:46:08;0.40;;;0.30;;
41635;SDS011;27623;51.966;4.602;2024-01-30T10:48:41;2.25;;;0.60;;
41635;SDS011;27623;51.966;4.602;2024-01-30T10:51:10;0.98;;;0.65;;
41635;SDS011;27623;51.966;4.602;2024-01-30T10:53:36;1.20;;;0.70;;
41635;SDS011;27623;51.966;4.602;2024-01-30T10:56:02;1.45;;;0.70;;
41635;SDS011;27623;51.966;4.602;2024-01-30T10:58:31;5.20;;;0.65;;
41635;SDS011;27623;51.966;4.602;2024-01-30T11:00:57;1.20;;;0.50;;
41635;SDS011;27623;51.966;4.602;2024-01-30T11:03:24;1.73;;;0.85;;
41635;SDS011;27623;51.966;4.602;2024-01-30T11:05:50;1.17;;;0.77;;
41635;SDS011;27623;51.966;4.602;2024-01-30T11:08:22;0.70;;;0.60;;
41635;SDS011;27623;51.966;4.602;2024-01-30T11:10:49;0.85;;;0.47;;
41635;SDS011;27623;51.966;4.602;2024-01-30T11:13:15;6.88;;;0.45;;
41635;SDS011;27623;51.966;4.602;2024-01-30T11:15:41;0.40;;;0.30;;
41635;SDS011;27623;51.966;4.602;2024-01-30T11:18:06;0.75;;;0.68;;
41635;SDS011;27623;51.966;4.602;2024-01-30T11:20:36;1.38;;;0.60;;
41635;SDS011;27623;51.966;4.602;2024-01-30T11:23:11;0.80;;;0.22;;
41635;SDS011;27623;51.966;4.602;2024-01-30T11:25:37;5.30;;;0.93;;
41635;SDS011;27623;51.966;4.602;2024-01-30T11:28:02;1.60;;;0.63;;
41635;SDS011;27623;51.966;4.602;2024-01-30T11:30:28;2.70;;;0.40;;
41635;SDS011;27623;51.966;4.602;2024-01-30T11:32:59;1.15;;;1.05;;
41635;SDS011;27623;51.966;4.602;2024-01-30T11:35:25;6.60;;;1.35;;
41635;SDS011;27623;51.966;4.602;2024-01-30T11:37:50;0.20;;;0.20;;
41635;SDS011;27623;51.966;4.602;2024-01-30T11:40:16;0.10;;;0.10;;
41635;SDS011;27623;51.966;4.602;2024-01-30T11:42:41;1.73;;;0.40;;
41635;SDS011;27623;51.966;4.602;2024-01-30T11:45:10;2.53;;;0.88;;
41635;SDS011;27623;51.966;4.602;2024-01-30T11:47:36;0.55;;;0.32;;
41635;SDS011;27623;51.966;4.602;2024-01-30T11:50:03;1.75;;;0.65;;
41635;SDS011;27623;51.966;4.602;2024-01-30T11:52:31;2.85;;;1.05;;
41635;SDS011;27623;51.966;4.602;2024-01-30T11:55:01;3.55;;;0.15;;
41635;SDS011;27623;51.966;4.602;2024-01-30T11:57:27;0.60;;;0.20;;
41635;SDS011;27623;51.966;4.602;2024-01-30T11:59:53;4.03;;;0.43;;
41635;SDS011;27623;51.966;4.602;2024-01-30T12:02:18;0.00;;;0.00;;
41635;SDS011;27623;51.966;4.602;2024-01-30T12:04:44;1.08;;;0.88;;
41635;SDS011;27623;51.966;4.602;2024-01-30T12:07:09;2.50;;;0.17;;
41635;SDS011;27623;51.966;4.602;2024-01-30T12:09:36;2.08;;;0.32;;
41635;SDS011;27623;51.966;4.602;2024-01-30T12:12:01;0.55;;;0.55;;
41635;SDS011;27623;51.966;4.602;2024-01-30T12:14:26;12.50;;;0.30;;
41635;SDS011;27623;51.966;4.602;2024-01-30T12:16:52;4.70;;;0.43;;
41635;SDS011;27623;51.966;4.602;2024-01-30T12:19:21;0.22;;;0.22;;
41635;SDS011;27623;51.966;4.602;2024-01-30T12:21:56;3.53;;;0.85;;
41635;SDS011;27623;51.966;4.602;2024-01-30T12:24:25;3.00;;;1.65;;
41635;SDS011;27623;51.966;4.602;2024-01-30T12:26:52;0.93;;;0.30;;
41635;SDS011;27623;51.966;4.602;2024-01-30T12:29:21;3.47;;;0.32;;
41635;SDS011;27623;51.966;4.602;2024-01-30T12:31:47;0.40;;;0.38;;
41635;SDS011;27623;51.966;4.602;2024-01-30T12:34:15;2.90;;;0.65;;
41635;SDS011;27623;51.966;4.602;2024-01-30T12:36:44;2.03;;;0.40;;
41635;SDS011;27623;51.966;4.602;2024-01-30T12:39:12;0.70;;;0.20;;
41635;SDS011;27623;51.966;4.602;2024-01-30T12:41:39;0.95;;;0.95;;
41635;SDS011;27623;51.966;4.602;2024-01-30T12:44:05;0.28;;;0.10;;
41635;SDS011;27623;51.966;4.602;2024-01-30T12:46:34;0.10;;;0.10;;
41635;SDS011;27623;51.966;4.602;2024-01-30T12:48:59;0.43;;;0.38;;
41635;SDS011;27623;51.966;4.602;2024-01-30T12:51:25;1.63;;;0.85;;
41635;SDS011;27623;51.966;4.602;2024-01-30T12:53:53;4.55;;;0.35;;
41635;SDS011;27623;51.966;4.602;2024-01-30T12:56:18;2.20;;;0.93;;
41635;SDS011;27623;51.966;4.602;2024-01-30T12:58:45;1.00;;;0.45;;
41635;SDS011;27623;51.966;4.602;2024-01-30T13:01:11;3.78;;;0.80;;
41635;SDS011;27623;51.966;4.602;2024-01-30T13:03:39;2.70;;;1.23;;
41635;SDS011;27623;51.966;4.602;2024-01-30T13:06:05;1.58;;;0.95;;
41635;SDS011;27623;51.966;4.602;2024-01-30T13:08:33;5.38;;;1.00;;
41635;SDS011;27623;51.966;4.602;2024-01-30T13:10:58;1.35;;;0.43;;
41635;SDS011;27623;51.966;4.602;2024-01-30T13:13:24;0.65;;;0.40;;
41635;SDS011;27623;51.966;4.602;2024-01-30T13:15:49;3.92;;;0.90;;
41635;SDS011;27623;51.966;4.602;2024-01-30T13:18:14;2.85;;;0.60;;
41635;SDS011;27623;51.966;4.602;2024-01-30T13:20:40;8.10;;;1.65;;
41635;SDS011;27623;51.966;4.602;2024-01-30T13:23:05;0.30;;;0.30;;
41635;SDS011;27623;51.966;4.602;2024-01-30T13:25:31;1.08;;;0.22;;
41635;SDS011;27623;51.966;4.602;2024-01-30T13:27:56;1.75;;;0.20;;
41635;SDS011;27623;51.966;4.602;2024-01-30T13:30:21;1.50;;;0.73;;
41635;SDS011;27623;51.966;4.602;2024-01-30T13:32:47;3.42;;;1.17;;
41635;SDS011;27623;51.966;4.602;2024-01-30T13:35:12;3.10;;;0.82;;
41635;SDS011;27623;51.966;4.602;2024-01-30T13:37:38;0.57;;;0.30;;
41635;SDS011;27623;51.966;4.602;2024-01-30T13:40:07;0.35;;;0.25;;
41635;SDS011;27623;51.966;4.602;2024-01-30T13:42:32;0.10;;;0.10;;
41635;SDS011;27623;51.966;4.602;2024-01-30T13:44:58;0.60;;;0.40;;
41635;SDS011;27623;51.966;4.602;2024-01-30T13:47:23;0.63;;;0.40;;
41635;SDS011;27623;51.966;4.602;2024-01-30T13:49:50;3.80;;;1.15;;
41635;SDS011;27623;51.966;4.602;2024-01-30T13:52:15;0.32;;;0.15;;
41635;SDS011;27623;51.966;4.602;2024-01-30T13:54:40;0.63;;;0.57;;
41635;SDS011;27623;51.966;4.602;2024-01-30T13:57:06;0.20;;;0.20;;
41635;SDS011;27623;51.966;4.602;2024-01-30T13:59:33;1.17;;;0.50;;
41635;SDS011;27623;51.966;4.602;2024-01-30T14:02:02;3.22;;;0.40;;
41635;SDS011;27623;51.966;4.602;2024-01-30T14:04:28;0.75;;;0.57;;
41635;SDS011;27623;51.966;4.602;2024-01-30T14:06:53;0.73;;;0.38;;
41635;SDS011;27623;51.966;4.602;2024-01-30T14:09:18;1.00;;;0.50;;
41635;SDS011;27623;51.966;4.602;2024-01-30T14:11:46;1.55;;;0.88;;
41635;SDS011;27623;51.966;4.602;2024-01-30T14:14:11;1.35;;;0.28;;
41635;SDS011;27623;51.966;4.602;2024-01-30T14:16:37;1.88;;;0.55;;
41635;SDS011;27623;51.966;4.602;2024-01-30T14:19:02;1.38;;;0.80;;
41635;SDS011;27623;51.966;4.602;2024-01-30T14:21:28;1.55;;;0.90;;
41635;SDS011;27623;51.966;4.602;2024-01-30T14:23:53;4.60;;;0.85;;
41635;SDS011;27623;51.966;4.602;2024-01-30T14:26:18;0.95;;;0.82;;
41635;SDS011;27623;51.966;4.602;2024-01-30T14:28:46;5.38;;;1.08;;
41635;SDS011;27623;51.966;4.602;2024-01-30T14:31:11;9.20;;;1.02;;
41635;SDS011;27623;51.966;4.602;2024-01-30T14:33:41;0.47;;;0.43;;
41635;SDS011;27623;51.966;4.602;2024-01-30T14:36:07;0.85;;;0.63;;
41635;SDS011;27623;51.966;4.602;2024-01-30T14:38:34;0.63;;;0.30;;
41635;SDS011;27623;51.966;4.602;2024-01-30T14:40:59;6.90;;;0.88;;
41635;SDS011;27623;51.966;4.602;2024-01-30T14:43:28;0.85;;;0.70;;